createdAt,value
2022-12-31T00:01:55.924Z,10.16
2022-12-31T00:04:24.925Z,10.16
2022-12-31T00:06:52.478Z,10.16
2022-12-31T00:09:20.204Z,10.16
2022-12-31T00:11:47.841Z,10.15
2022-12-31T00:14:15.596Z,10.19
2022-12-31T00:16:43.701Z,10.19
2022-12-31T00:19:12.809Z,10.18
2022-12-31T00:21:42.043Z,10.19
2022-12-31T00:24:12.295Z,10.21
2022-12-31T00:26:40.153Z,10.21
2022-12-31T00:29:07.792Z,10.23
2022-12-31T00:31:37.769Z,10.20
2022-12-31T00:34:05.803Z,10.18
2022-12-31T00:36:35.747Z,10.14
2022-12-31T00:39:08.229Z,10.12
2022-12-31T00:41:36.083Z,10.06
2022-12-31T00:44:04.179Z,10.00
2022-12-31T00:46:31.904Z,9.96
2022-12-31T00:48:59.720Z,9.93
2022-12-31T00:51:28.281Z,9.90
2022-12-31T00:53:56.398Z,9.86
2022-12-31T00:56:27.674Z,9.84
2022-12-31T00:58:55.387Z,9.83
2022-12-31T01:01:25.452Z,9.80
2022-12-31T01:03:57.009Z,9.78
2022-12-31T01:06:24.894Z,9.77
2022-12-31T01:08:53.866Z,9.78
2022-12-31T01:11:22.476Z,9.76
2022-12-31T01:13:53.502Z,9.73
2022-12-31T01:16:23.448Z,9.74
2022-12-31T01:18:51.733Z,9.73
2022-12-31T01:21:20.183Z,9.73
2022-12-31T01:23:48.265Z,9.74
2022-12-31T01:26:17.904Z,9.77
2022-12-31T01:28:45.758Z,9.78
2022-12-31T01:31:16.798Z,9.81
2022-12-31T01:33:45.717Z,9.84
2022-12-31T01:36:19.023Z,9.86
2022-12-31T01:38:51.831Z,9.88
2022-12-31T01:41:22.550Z,9.91
2022-12-31T01:43:54.331Z,9.90
2022-12-31T01:46:33.470Z,9.88
2022-12-31T01:49:05.756Z,9.92
2022-12-31T01:51:36.011Z,9.94
2022-12-31T01:54:06.498Z,9.94
2022-12-31T01:56:36.052Z,9.96
2022-12-31T01:59:07.556Z,9.96
2022-12-31T02:01:38.544Z,9.98
2022-12-31T02:04:09.937Z,9.95
2022-12-31T02:06:42.449Z,9.97
2022-12-31T02:09:10.674Z,9.98
2022-12-31T02:11:38.310Z,9.98
2022-12-31T02:14:09.285Z,9.99
2022-12-31T02:16:45.732Z,9.99
2022-12-31T02:19:48.334Z,9.97
2022-12-31T02:22:28.713Z,9.95
2022-12-31T02:25:26.458Z,9.95
2022-12-31T02:28:09.809Z,9.92
2022-12-31T02:30:41.208Z,9.89
2022-12-31T02:33:15.950Z,9.90
2022-12-31T02:35:50.587Z,9.88
2022-12-31T02:38:23.035Z,9.87
2022-12-31T02:40:51.075Z,9.85
2022-12-31T02:43:18.715Z,9.85
2022-12-31T02:45:51.584Z,9.82
2022-12-31T02:48:40.722Z,9.83
2022-12-31T02:51:24.334Z,9.82
2022-12-31T02:54:07.991Z,9.82
2022-12-31T02:56:40.679Z,9.83
2022-12-31T02:59:33.635Z,9.84
2022-12-31T03:02:17.057Z,9.86
2022-12-31T03:04:48.496Z,9.89
2022-12-31T03:07:20.593Z,9.90
2022-12-31T03:09:48.231Z,9.91
2022-12-31T03:12:34.234Z,9.96
2022-12-31T03:15:02.029Z,9.99
2022-12-31T03:17:31.059Z,9.99
2022-12-31T03:20:16.075Z,9.98
2022-12-31T03:22:44.590Z,9.97
2022-12-31T03:25:32.728Z,9.96
2022-12-31T03:28:01.474Z,9.95
2022-12-31T03:30:29.537Z,9.93
2022-12-31T03:32:59.140Z,9.92
2022-12-31T03:35:28.461Z,9.91
2022-12-31T03:37:57.662Z,9.88
2022-12-31T03:40:27.295Z,9.88
2022-12-31T03:42:55.299Z,9.86
2022-12-31T03:45:23.154Z,9.87
2022-12-31T03:47:51.211Z,9.83
2022-12-31T03:50:20.704Z,9.85
2022-12-31T03:52:48.809Z,9.83
2022-12-31T03:55:16.406Z,9.82
2022-12-31T03:57:44.263Z,9.79
2022-12-31T04:00:15.647Z,9.79
2022-12-31T04:02:43.566Z,9.77
2022-12-31T04:05:12.135Z,9.77
2022-12-31T04:07:41.872Z,9.73
2022-12-31T04:10:12.102Z,9.74
2022-12-31T04:12:40.138Z,9.70
2022-12-31T04:15:09.634Z,9.69
2022-12-31T04:17:37.263Z,9.67
2022-12-31T04:20:05.935Z,9.66
2022-12-31T04:22:33.515Z,9.65
2022-12-31T04:25:02.467Z,9.65
2022-12-31T04:27:30.043Z,9.64
2022-12-31T04:29:57.636Z,9.63
2022-12-31T04:32:25.195Z,9.62
2022-12-31T04:34:52.796Z,9.62
2022-12-31T04:37:20.483Z,9.59
2022-12-31T04:39:48.076Z,9.61
2022-12-31T04:42:17.016Z,9.60
2022-12-31T04:44:44.571Z,9.60
2022-12-31T04:47:12.151Z,9.62
2022-12-31T04:49:39.714Z,9.62
2022-12-31T04:52:07.450Z,9.60
2022-12-31T04:54:35.118Z,9.59
2022-12-31T04:57:02.703Z,9.58
2022-12-31T04:59:31.656Z,9.57
2022-12-31T05:01:59.516Z,9.57
2022-12-31T05:04:27.311Z,9.56
2022-12-31T05:06:54.887Z,9.53
2022-12-31T05:09:24.117Z,9.51
2022-12-31T05:11:51.893Z,9.48
2022-12-31T05:14:20.026Z,9.44
2022-12-31T05:16:49.039Z,9.43
2022-12-31T05:19:17.003Z,9.41
2022-12-31T05:22:05.066Z,9.39
2022-12-31T05:24:32.774Z,9.36
2022-12-31T05:27:00.415Z,9.36
2022-12-31T05:29:28.247Z,9.36
2022-12-31T05:31:57.235Z,9.35
2022-12-31T05:34:24.922Z,9.36
2022-12-31T05:36:52.531Z,9.37
2022-12-31T05:39:20.195Z,9.37
2022-12-31T05:41:47.832Z,9.38
2022-12-31T05:44:15.624Z,9.39
2022-12-31T05:46:43.219Z,9.39
2022-12-31T05:49:12.120Z,9.40
2022-12-31T05:51:39.908Z,9.41
2022-12-31T05:54:07.581Z,9.47
2022-12-31T05:56:35.210Z,9.47
2022-12-31T05:59:02.853Z,9.49
2022-12-31T06:01:30.651Z,9.50
2022-12-31T06:03:58.365Z,9.49
2022-12-31T06:06:27.414Z,9.51
2022-12-31T06:08:55.055Z,9.52
2022-12-31T06:11:22.653Z,9.53
2022-12-31T06:13:50.271Z,9.56
2022-12-31T06:16:17.965Z,9.55
2022-12-31T06:18:50.181Z,9.57
2022-12-31T06:21:18.411Z,9.61
2022-12-31T06:23:47.560Z,9.64
2022-12-31T06:26:16.233Z,9.65
2022-12-31T06:28:43.968Z,9.67
2022-12-31T06:31:13.933Z,9.69
2022-12-31T06:33:42.608Z,9.71
2022-12-31T06:36:14.165Z,9.74
2022-12-31T06:38:43.408Z,9.77
2022-12-31T06:41:14.335Z,9.78
2022-12-31T06:43:42.825Z,9.78
2022-12-31T06:46:13.282Z,9.80
2022-12-31T06:48:43.046Z,9.80
2022-12-31T06:51:17.008Z,9.78
2022-12-31T06:53:46.158Z,9.74
2022-12-31T06:56:18.881Z,9.70
2022-12-31T06:58:47.476Z,9.66
2022-12-31T07:01:31.616Z,9.63
2022-12-31T07:04:07.615Z,9.58
2022-12-31T07:06:43.997Z,9.55
2022-12-31T07:09:19.375Z,9.52
2022-12-31T07:12:01.646Z,9.49
2022-12-31T07:14:38.273Z,9.46
2022-12-31T07:17:17.489Z,9.45
2022-12-31T07:19:57.741Z,9.43
2022-12-31T07:22:26.084Z,9.42
2022-12-31T07:24:54.335Z,9.39
2022-12-31T07:27:37.183Z,9.41
2022-12-31T07:30:11.021Z,9.42
2022-12-31T07:33:09.323Z,9.43
2022-12-31T07:35:48.463Z,9.45
2022-12-31T07:38:25.564Z,9.48
2022-12-31T07:41:09.375Z,9.51
2022-12-31T07:43:49.503Z,9.53
2022-12-31T07:46:23.266Z,9.56
2022-12-31T07:48:51.619Z,9.57
2022-12-31T07:51:19.819Z,9.61
2022-12-31T07:53:47.510Z,9.61
2022-12-31T07:56:15.292Z,9.64
2022-12-31T07:58:59.367Z,9.65
2022-12-31T08:01:35.511Z,9.66
2022-12-31T08:04:10.390Z,9.69
2022-12-31T08:06:46.971Z,9.71
2022-12-31T08:09:30.499Z,9.72
2022-12-31T08:11:59.762Z,9.74
2022-12-31T08:14:30.049Z,9.78
2022-12-31T08:16:59.064Z,9.80
2022-12-31T08:19:29.739Z,9.83
2022-12-31T08:22:16.659Z,9.86
2022-12-31T08:24:56.614Z,9.90
2022-12-31T08:27:33.427Z,9.93
2022-12-31T08:30:08.756Z,9.94
2022-12-31T08:32:42.154Z,9.96
2022-12-31T08:35:26.844Z,9.98
2022-12-31T08:38:02.403Z,10.01
2022-12-31T08:40:39.300Z,10.02
2022-12-31T08:43:19.832Z,10.06
2022-12-31T08:45:51.248Z,10.08
2022-12-31T08:48:26.799Z,10.13
2022-12-31T08:50:55.473Z,10.16
2022-12-31T08:53:23.668Z,10.20
2022-12-31T08:55:56.806Z,10.21
2022-12-31T08:58:40.667Z,10.22
2022-12-31T09:01:10.406Z,10.25
2022-12-31T09:04:04.600Z,10.27
2022-12-31T09:06:36.983Z,10.29
2022-12-31T09:09:11.314Z,10.33
2022-12-31T09:11:52.283Z,10.36
2022-12-31T09:14:37.584Z,10.39
2022-12-31T09:17:17.643Z,10.42
2022-12-31T09:19:45.513Z,10.42
2022-12-31T09:22:13.400Z,10.44
2022-12-31T09:24:41.522Z,10.42
2022-12-31T09:27:17.665Z,10.43
2022-12-31T09:29:58.237Z,10.45
2022-12-31T09:32:37.094Z,10.46
2022-12-31T09:35:12.684Z,10.46
2022-12-31T09:37:46.928Z,10.48
2022-12-31T09:40:54.068Z,10.50
2022-12-31T09:44:01.517Z,10.45
2022-12-31T09:47:08.865Z,10.45
2022-12-31T09:50:04.723Z,10.46
2022-12-31T09:52:44.555Z,10.49
2022-12-31T09:55:29.819Z,10.50
2022-12-31T09:58:08.798Z,10.51
2022-12-31T10:00:42.546Z,10.46
2022-12-31T10:03:28.922Z,10.47
2022-12-31T10:06:17.270Z,10.48
2022-12-31T10:09:01.470Z,10.48
2022-12-31T10:11:51.961Z,10.48
2022-12-31T10:14:31.674Z,10.44
2022-12-31T10:17:19.629Z,10.42
2022-12-31T10:20:03.081Z,10.39
2022-12-31T10:22:56.000Z,10.36
2022-12-31T10:25:38.611Z,10.36
2022-12-31T10:28:19.239Z,10.35
2022-12-31T10:30:58.729Z,10.33
2022-12-31T10:33:42.405Z,10.31
2022-12-31T10:36:19.294Z,10.32
2022-12-31T10:39:01.492Z,10.34
2022-12-31T10:42:05.974Z,10.35
2022-12-31T10:45:16.356Z,10.37
2022-12-31T10:48:07.285Z,10.38
2022-12-31T10:51:09.766Z,10.40
2022-12-31T10:54:09.301Z,10.43
2022-12-31T10:57:07.083Z,10.43
2022-12-31T10:59:55.119Z,10.45
2022-12-31T11:03:01.935Z,10.45
2022-12-31T11:06:04.760Z,10.49
2022-12-31T11:08:50.851Z,10.48
2022-12-31T11:11:29.419Z,10.47
2022-12-31T11:14:30.356Z,10.43
2022-12-31T11:17:09.237Z,10.41
2022-12-31T11:19:47.910Z,10.39
2022-12-31T11:22:44.967Z,10.37
2022-12-31T11:25:34.310Z,10.36
2022-12-31T11:28:20.177Z,10.32
2022-12-31T11:31:02.411Z,10.31
2022-12-31T11:33:46.788Z,10.31
2022-12-31T11:36:25.252Z,10.32
2022-12-31T11:38:56.952Z,10.30
2022-12-31T11:41:34.423Z,10.35
2022-12-31T11:44:14.166Z,10.40
2022-12-31T11:46:54.520Z,10.44
2022-12-31T11:49:44.015Z,10.50
2022-12-31T11:52:29.309Z,10.54
2022-12-31T11:55:13.579Z,10.56
2022-12-31T11:57:47.512Z,10.60
2022-12-31T12:00:20.487Z,10.61
2022-12-31T12:02:50.251Z,10.65
2022-12-31T12:05:21.208Z,10.70
2022-12-31T12:07:49.624Z,10.71
2022-12-31T12:10:27.859Z,10.75
2022-12-31T12:13:00.332Z,10.72
2022-12-31T12:15:32.733Z,10.71
2022-12-31T12:18:07.554Z,10.69
2022-12-31T12:20:38.354Z,10.67
2022-12-31T12:23:15.922Z,10.63
2022-12-31T12:25:45.725Z,10.61
2022-12-31T12:28:21.603Z,10.56
2022-12-31T12:30:57.393Z,10.54
2022-12-31T12:33:25.533Z,10.53
2022-12-31T12:35:53.345Z,10.52
2022-12-31T12:38:23.766Z,10.48
2022-12-31T12:40:57.448Z,10.47
2022-12-31T12:43:27.573Z,10.49
2022-12-31T12:46:00.675Z,10.55
2022-12-31T12:48:35.830Z,10.65
2022-12-31T12:51:19.824Z,10.81
2022-12-31T12:53:59.120Z,10.91
2022-12-31T12:56:38.119Z,11.00
2022-12-31T12:59:29.832Z,11.10
2022-12-31T13:02:09.441Z,11.18
2022-12-31T13:04:53.507Z,11.21
2022-12-31T13:07:37.523Z,11.29
2022-12-31T13:10:19.688Z,11.30
2022-12-31T13:15:53.113Z,11.37
2022-12-31T13:18:33.300Z,11.41
2022-12-31T13:21:05.819Z,11.45
2022-12-31T13:23:40.129Z,11.44
2022-12-31T13:26:15.627Z,11.45
2022-12-31T13:28:47.288Z,11.49
2022-12-31T13:31:19.342Z,11.50
2022-12-31T13:33:53.398Z,11.50
2022-12-31T13:36:24.516Z,11.50
2022-12-31T13:38:53.759Z,11.52
2022-12-31T13:41:26.104Z,11.55
2022-12-31T13:43:59.433Z,11.55
2022-12-31T13:46:38.116Z,11.57
2022-12-31T13:49:16.814Z,11.56
2022-12-31T13:51:46.462Z,11.56
2022-12-31T13:54:25.447Z,11.60
2022-12-31T13:56:54.492Z,11.62
2022-12-31T13:59:27.184Z,11.65
2022-12-31T14:02:01.645Z,11.66
2022-12-31T14:04:34.932Z,11.67
2022-12-31T14:07:08.552Z,11.73
2022-12-31T14:09:37.713Z,11.73
2022-12-31T14:12:29.601Z,11.77
2022-12-31T14:15:08.625Z,11.77
2022-12-31T14:17:41.303Z,11.80
2022-12-31T14:20:22.649Z,11.86
2022-12-31T14:22:59.560Z,11.88
2022-12-31T14:25:32.284Z,11.90
2022-12-31T14:28:02.993Z,11.89
2022-12-31T14:30:33.347Z,11.96
2022-12-31T14:33:26.326Z,11.96
2022-12-31T14:36:10.546Z,12.00
2022-12-31T14:38:52.411Z,12.03
2022-12-31T14:41:35.020Z,12.05
2022-12-31T14:44:14.306Z,12.11
2022-12-31T14:46:54.521Z,12.09
2022-12-31T14:49:37.584Z,12.09
2022-12-31T14:52:23.309Z,12.11
2022-12-31T14:55:02.930Z,12.12
2022-12-31T14:58:01.449Z,12.15
2022-12-31T15:00:32.198Z,12.16
2022-12-31T15:03:02.580Z,12.17
2022-12-31T15:05:31.861Z,12.19
2022-12-31T15:08:22.931Z,12.20
2022-12-31T15:11:13.274Z,12.19
2022-12-31T15:13:55.954Z,12.22
2022-12-31T15:16:38.659Z,12.21
2022-12-31T15:19:42.751Z,12.22
2022-12-31T15:22:23.146Z,12.23
2022-12-31T15:24:52.278Z,12.24
2022-12-31T15:27:34.685Z,12.23
2022-12-31T15:30:03.616Z,12.27
2022-12-31T15:32:36.675Z,12.26
2022-12-31T15:35:24.134Z,12.27
2022-12-31T15:37:59.363Z,12.29
2022-12-31T15:40:29.778Z,12.27
2022-12-31T15:43:03.430Z,12.24
2022-12-31T15:45:37.949Z,12.24
2022-12-31T15:48:14.619Z,12.21
2022-12-31T15:50:44.149Z,12.21
2022-12-31T15:53:24.152Z,12.18
2022-12-31T15:55:55.639Z,12.16
2022-12-31T15:58:27.350Z,12.14
2022-12-31T16:01:02.966Z,12.10
2022-12-31T16:03:32.768Z,12.08
2022-12-31T16:06:02.744Z,12.06
2022-12-31T16:08:34.746Z,12.03
2022-12-31T16:11:05.364Z,12.01
2022-12-31T16:13:36.131Z,11.97
2022-12-31T16:16:05.477Z,11.93
2022-12-31T16:18:40.296Z,11.91
2022-12-31T16:21:26.307Z,11.90
2022-12-31T16:23:54.886Z,11.84
2022-12-31T16:26:27.003Z,11.81
2022-12-31T16:28:59.901Z,11.74
2022-12-31T16:31:30.592Z,11.74
2022-12-31T16:34:06.318Z,11.68
2022-12-31T16:36:34.132Z,11.63
2022-12-31T16:39:24.341Z,11.60
2022-12-31T16:41:54.097Z,11.54
2022-12-31T16:44:26.688Z,11.48
2022-12-31T16:46:58.117Z,11.47
2022-12-31T16:49:27.125Z,11.44
2022-12-31T16:51:59.428Z,11.43
2022-12-31T16:54:31.055Z,11.36
2022-12-31T16:57:01.364Z,11.34
2022-12-31T16:59:35.344Z,11.33
2022-12-31T17:02:12.763Z,11.30
2022-12-31T17:04:46.920Z,11.28
2022-12-31T17:07:37.782Z,11.27
2022-12-31T17:10:17.083Z,11.25
2022-12-31T17:13:25.506Z,11.21
2022-12-31T17:15:41.293Z,11.15
2022-12-31T17:18:16.015Z,11.15
2022-12-31T17:20:44.010Z,11.11
2022-12-31T17:23:21.736Z,11.06
2022-12-31T17:25:50.971Z,11.03
2022-12-31T17:28:26.074Z,11.02
2022-12-31T17:30:54.109Z,11.00
2022-12-31T17:33:32.226Z,11.00
2022-12-31T17:36:23.193Z,10.97
2022-12-31T17:38:51.390Z,10.93
2022-12-31T17:41:26.765Z,10.92
2022-12-31T17:43:57.647Z,10.88
2022-12-31T17:46:26.561Z,10.85
2022-12-31T17:49:02.967Z,10.85
2022-12-31T17:51:30.542Z,10.84
2022-12-31T17:54:00.751Z,10.82
2022-12-31T17:56:28.354Z,10.84
2022-12-31T17:58:57.262Z,10.81
2022-12-31T18:01:25.048Z,10.80
2022-12-31T18:03:52.836Z,10.82
2022-12-31T18:06:20.399Z,10.83
2022-12-31T18:08:48.501Z,10.81
2022-12-31T18:11:18.751Z,10.81
2022-12-31T18:13:46.830Z,10.80
2022-12-31T18:16:16.553Z,10.82
2022-12-31T18:18:45.302Z,10.82
2022-12-31T18:21:20.153Z,10.84
2022-12-31T18:23:49.293Z,10.85
2022-12-31T18:26:19.321Z,10.83
2022-12-31T18:28:47.979Z,10.86
2022-12-31T18:31:19.391Z,10.85
2022-12-31T18:33:48.214Z,10.83
2022-12-31T18:36:18.587Z,10.85
2022-12-31T18:38:46.860Z,10.83
2022-12-31T18:41:18.502Z,10.85
2022-12-31T18:43:46.275Z,10.85
2022-12-31T18:46:15.679Z,10.86
2022-12-31T18:48:45.106Z,10.84
2022-12-31T18:51:15.080Z,10.83
2022-12-31T18:53:42.963Z,10.85
2022-12-31T18:56:13.698Z,10.85
2022-12-31T18:58:42.379Z,10.85
2022-12-31T19:01:25.669Z,10.88
2022-12-31T19:03:55.608Z,10.90
2022-12-31T19:06:23.396Z,10.93
2022-12-31T19:08:51.422Z,10.93
2022-12-31T19:11:19.829Z,10.94
2022-12-31T19:13:47.684Z,10.96
2022-12-31T19:16:17.836Z,10.98
2022-12-31T19:18:47.330Z,11.01
2022-12-31T19:21:18.394Z,11.01
2022-12-31T19:23:46.408Z,11.05
2022-12-31T19:26:17.189Z,11.06
2022-12-31T19:28:45.958Z,11.07
2022-12-31T19:31:14.289Z,11.07
2022-12-31T19:33:42.254Z,11.07
2022-12-31T19:36:15.729Z,11.09
2022-12-31T19:38:45.290Z,11.09
2022-12-31T19:41:17.891Z,11.11
2022-12-31T19:43:46.157Z,11.14
2022-12-31T19:46:15.397Z,11.11
2022-12-31T19:48:43.682Z,11.08
2022-12-31T19:51:13.366Z,11.08
2022-12-31T19:53:41.353Z,11.08
2022-12-31T19:56:14.107Z,11.07
2022-12-31T19:58:42.023Z,11.06
2022-12-31T20:01:17.239Z,11.05
2022-12-31T20:03:44.983Z,11.05
2022-12-31T20:06:12.614Z,11.00
2022-12-31T20:08:43.252Z,11.00
2022-12-31T20:11:14.461Z,10.97
2022-12-31T20:13:43.260Z,10.99
2022-12-31T20:16:12.851Z,10.97
2022-12-31T20:18:42.421Z,11.00
2022-12-31T20:21:13.224Z,11.00
2022-12-31T20:23:40.875Z,10.99
2022-12-31T20:26:08.604Z,10.99
2022-12-31T20:28:38.320Z,10.99
2022-12-31T20:31:07.674Z,11.00
2022-12-31T20:33:35.486Z,11.01
2022-12-31T20:36:03.685Z,11.01
2022-12-31T20:38:31.290Z,11.03
2022-12-31T20:41:04.438Z,11.00
2022-12-31T20:43:33.268Z,10.98
2022-12-31T20:46:12.442Z,11.02
2022-12-31T20:48:43.262Z,11.02
2022-12-31T20:51:10.999Z,11.03
2022-12-31T20:53:38.738Z,11.06
2022-12-31T20:56:06.939Z,11.07
2022-12-31T20:58:34.690Z,11.11
2022-12-31T21:01:07.154Z,11.16
2022-12-31T21:06:24.532Z,11.23
2022-12-31T21:08:52.410Z,11.27
2022-12-31T21:11:37.473Z,11.30
2022-12-31T21:14:05.236Z,11.35
2022-12-31T21:16:36.723Z,11.39
2022-12-31T21:19:05.435Z,11.42
2022-12-31T21:21:34.656Z,11.43
2022-12-31T21:24:02.948Z,11.47
2022-12-31T21:26:31.417Z,11.51
2022-12-31T21:28:59.442Z,11.56
2022-12-31T21:31:27.146Z,11.59
2022-12-31T21:33:56.366Z,11.62
2022-12-31T21:36:24.091Z,11.67
2022-12-31T21:38:51.699Z,11.71
2022-12-31T21:41:37.015Z,11.73
2022-12-31T21:44:05.467Z,11.77
2022-12-31T21:46:33.444Z,11.79
2022-12-31T21:49:02.487Z,11.83
2022-12-31T21:51:30.505Z,11.84
2022-12-31T21:53:58.788Z,11.86
2022-12-31T21:56:25.460Z,11.86
2022-12-31T21:59:09.692Z,11.87
2022-12-31T22:02:00.277Z,11.89
2022-12-31T22:05:01.398Z,11.90
2022-12-31T22:07:18.169Z,11.94
2022-12-31T22:09:45.991Z,11.94
2022-12-31T22:12:13.768Z,11.97
2022-12-31T22:15:14.201Z,11.97
2022-12-31T22:17:31.228Z,11.96
2022-12-31T22:20:25.845Z,11.97
2022-12-31T22:22:47.801Z,11.96
2022-12-31T22:25:15.595Z,11.93
2022-12-31T22:27:53.039Z,11.96
2022-12-31T22:30:31.065Z,11.94
2022-12-31T22:32:58.912Z,11.96
2022-12-31T22:35:27.809Z,11.96
2022-12-31T22:37:57.928Z,11.94
2022-12-31T22:40:27.807Z,11.95
2022-12-31T22:42:55.955Z,11.94
2022-12-31T22:45:23.523Z,11.97
2022-12-31T22:47:51.273Z,11.96
2022-12-31T22:50:20.167Z,11.95
2022-12-31T22:52:49.089Z,11.95
2022-12-31T22:55:16.699Z,11.97
2022-12-31T22:57:44.286Z,11.98
2022-12-31T23:00:14.729Z,11.98
2022-12-31T23:02:43.314Z,12.00
2022-12-31T23:05:15.762Z,12.00
2022-12-31T23:07:43.989Z,12.01
2022-12-31T23:10:30.508Z,12.02
2022-12-31T23:13:19.739Z,12.05
2022-12-31T23:16:05.215Z,12.03
2022-12-31T23:18:50.565Z,12.06
2022-12-31T23:21:36.018Z,12.10
2022-12-31T23:24:04.442Z,12.07
2022-12-31T23:26:33.493Z,12.11
2022-12-31T23:29:01.959Z,12.06
2022-12-31T23:31:32.056Z,12.05
2022-12-31T23:33:59.687Z,11.96
2022-12-31T23:36:27.474Z,11.83
2022-12-31T23:38:55.069Z,11.77
2022-12-31T23:41:23.235Z,11.71
2022-12-31T23:43:52.317Z,11.64
2022-12-31T23:46:20.262Z,11.61
2022-12-31T23:48:47.876Z,11.58
2022-12-31T23:51:15.527Z,11.57
2022-12-31T23:53:43.139Z,11.56
2022-12-31T23:56:22.800Z,11.60
2022-12-31T23:58:56.155Z,11.60
